Terminal Aerodrome Forecast
Issued by NWS Northern Indiana

Home | Current Version | Previous Version | Text Only | Print | Product List | Glossary On
Versions: 1 2 3 4 5 6 7 8 9 10 11 12 13 14 15 16 17 18 19
000
FTUS43 KIWX 020000 AAA
TAFFWA
TAF AMD
KFWA 020052Z 0201/0224 06014G24KT 2SM -SN BLSN SCT008 OVC020
      TEMPO 0201/0204 1SM -SN BLSN OVC008
     FM020400 02016G26KT 2SM -SN BLSN OVC010
     FM021200 34014G22KT P6SM BKN020=

USA.gov is the U.S. government's official web portal to all federal, state and local government web resources and services.